sensor_id;sensor_type;location;lat;lon;timestamp;pressure;altitude;pressure_sealevel;temperature;humidity
18509;BME280;9383;50.928;12.116;2023-03-20T00:01:55;98906.50;;;8.73;100.00
18509;BME280;9383;50.928;12.116;2023-03-20T00:04:21;98910.00;;;8.72;100.00
18509;BME280;9383;50.928;12.116;2023-03-20T00:06:48;98902.09;;;8.72;100.00
18509;BME280;9383;50.928;12.116;2023-03-20T00:09:14;98908.28;;;8.71;100.00
18509;BME280;9383;50.928;12.116;2023-03-20T00:11:50;98907.44;;;8.70;100.00
18509;BME280;9383;50.928;12.116;2023-03-20T00:14:19;98908.34;;;8.69;100.00
18509;BME280;9383;50.928;12.116;2023-03-20T00:16:48;98910.09;;;8.69;100.00
18509;BME280;9383;50.928;12.116;2023-03-20T00:19:21;98906.63;;;8.67;100.00
18509;BME280;9383;50.928;12.116;2023-03-20T00:21:52;98903.16;;;8.66;100.00
18509;BME280;9383;50.928;12.116;2023-03-20T00:24:19;98908.47;;;8.65;100.00
18509;BME280;9383;50.928;12.116;2023-03-20T00:26:48;98901.44;;;8.64;100.00
18509;BME280;9383;50.928;12.116;2023-03-20T00:29:26;98907.66;;;8.63;100.00
18509;BME280;9383;50.928;12.116;2023-03-20T00:31:54;98899.75;;;8.61;100.00
18509;BME280;9383;50.928;12.116;2023-03-20T00:34:24;98901.53;;;8.61;100.00
18509;BME280;9383;50.928;12.116;2023-03-20T00:36:53;98900.69;;;8.58;100.00
18509;BME280;9383;50.928;12.116;2023-03-20T00:39:20;98898.97;;;8.57;100.00
18509;BME280;9383;50.928;12.116;2023-03-20T00:41:56;98899.03;;;8.56;100.00
18509;BME280;9383;50.928;12.116;2023-03-20T00:44:33;98901.69;;;8.54;100.00
18509;BME280;9383;50.928;12.116;2023-03-20T00:47:13;98902.59;;;8.53;100.00
18509;BME280;9383;50.928;12.116;2023-03-20T00:49:42;98901.78;;;8.51;100.00
18509;BME280;9383;50.928;12.116;2023-03-20T00:52:09;98901.84;;;8.48;100.00
18509;BME280;9383;50.928;12.116;2023-03-20T00:54:38;98894.81;;;8.47;100.00
18509;BME280;9383;50.928;12.116;2023-03-20T00:57:14;98898.41;;;8.44;100.00
18509;BME280;9383;50.928;12.116;2023-03-20T00:59:58;98893.16;;;8.43;100.00
18509;BME280;9383;50.928;12.116;2023-03-20T01:02:28;98902.00;;;8.42;100.00
18509;BME280;9383;50.928;12.116;2023-03-20T01:04:56;98898.53;;;8.40;100.00
18509;BME280;9383;50.928;12.116;2023-03-20T01:07:23;98907.38;;;8.39;100.00
18509;BME280;9383;50.928;12.116;2023-03-20T01:09:50;98895.91;;;8.38;100.00
18509;BME280;9383;50.928;12.116;2023-03-20T01:12:17;98895.09;;;8.36;100.00
18509;BME280;9383;50.928;12.116;2023-03-20T01:14:45;98899.53;;;8.36;100.00
18509;BME280;9383;50.928;12.116;2023-03-20T01:17:19;98903.09;;;8.35;100.00
18509;BME280;9383;50.928;12.116;2023-03-20T01:19:46;98903.13;;;8.33;100.00
18509;BME280;9383;50.928;12.116;2023-03-20T01:22:13;98899.66;;;8.31;100.00
18509;BME280;9383;50.928;12.116;2023-03-20T01:24:40;98900.56;;;8.30;100.00
18509;BME280;9383;50.928;12.116;2023-03-20T01:27:17;98900.56;;;8.30;100.00
18509;BME280;9383;50.928;12.116;2023-03-20T01:29:44;98906.78;;;8.27;100.00
18509;BME280;9383;50.928;12.116;2023-03-20T01:32:14;98892.75;;;8.25;100.00
18509;BME280;9383;50.928;12.116;2023-03-20T01:34:42;98903.31;;;8.25;100.00
18509;BME280;9383;50.928;12.116;2023-03-20T01:37:16;98908.59;;;8.25;100.00
18509;BME280;9383;50.928;12.116;2023-03-20T01:39:43;98913.91;;;8.24;100.00
18509;BME280;9383;50.928;12.116;2023-03-20T01:42:14;98915.69;;;8.23;100.00
18509;BME280;9383;50.928;12.116;2023-03-20T01:44:41;98920.97;;;8.23;100.00
18509;BME280;9383;50.928;12.116;2023-03-20T01:47:15;98908.72;;;8.21;100.00
18509;BME280;9383;50.928;12.116;2023-03-20T01:50:31;98917.53;;;8.20;100.00
18509;BME280;9383;50.928;12.116;2023-03-20T01:53:18;98915.81;;;8.19;100.00
18509;BME280;9383;50.928;12.116;2023-03-20T01:55:46;98917.56;;;8.18;100.00
18509;BME280;9383;50.928;12.116;2023-03-20T01:58:20;98914.94;;;8.18;100.00
18509;BME280;9383;50.928;12.116;2023-03-20T02:00:47;98916.75;;;8.16;100.00
18509;BME280;9383;50.928;12.116;2023-03-20T02:03:16;98913.28;;;8.14;100.00
18509;BME280;9383;50.928;12.116;2023-03-20T02:05:44;98915.09;;;8.12;100.00
18509;BME280;9383;50.928;12.116;2023-03-20T02:08:18;98914.28;;;8.10;100.00
18509;BME280;9383;50.928;12.116;2023-03-20T02:10:46;98918.72;;;8.08;100.00
18509;BME280;9383;50.928;12.116;2023-03-20T02:13:15;98924.94;;;8.05;100.00
18509;BME280;9383;50.928;12.116;2023-03-20T02:16:01;98921.59;;;7.98;100.00
18509;BME280;9383;50.928;12.116;2023-03-20T02:18:28;98927.00;;;7.94;100.00
18509;BME280;9383;50.928;12.116;2023-03-20T02:21:20;98928.00;;;7.88;100.00
18509;BME280;9383;50.928;12.116;2023-03-20T02:28:04;98933.53;;;7.77;100.00
18509;BME280;9383;50.928;12.116;2023-03-20T02:33:48;98933.09;;;7.58;100.00
18509;BME280;9383;50.928;12.116;2023-03-20T02:39:29;98929.13;;;7.40;99.79
18509;BME280;9383;50.928;12.116;2023-03-20T02:51:07;98924.59;;;7.04;98.74
18509;BME280;9383;50.928;12.116;2023-03-20T02:54:03;98918.63;;;6.96;98.92
18509;BME280;9383;50.928;12.116;2023-03-20T02:59:51;98921.53;;;6.80;98.27
18509;BME280;9383;50.928;12.116;2023-03-20T03:02:33;98920.84;;;6.72;98.74
18509;BME280;9383;50.928;12.116;2023-03-20T03:05:10;98920.13;;;6.64;98.15
18509;BME280;9383;50.928;12.116;2023-03-20T03:07:40;98921.16;;;6.55;98.02
18509;BME280;9383;50.928;12.116;2023-03-20T03:10:23;98917.81;;;6.46;97.84
18509;BME280;9383;50.928;12.116;2023-03-20T03:12:55;98923.22;;;6.37;98.05
18509;BME280;9383;50.928;12.116;2023-03-20T03:15:28;98926.06;;;6.28;97.78
18509;BME280;9383;50.928;12.116;2023-03-20T03:17:58;98931.44;;;6.20;98.16
18509;BME280;9383;50.928;12.116;2023-03-20T03:20:32;98924.53;;;6.13;98.36
18509;BME280;9383;50.928;12.116;2023-03-20T03:23:02;98925.50;;;6.07;99.08
18509;BME280;9383;50.928;12.116;2023-03-20T03:25:38;98931.72;;;6.00;99.19
18509;BME280;9383;50.928;12.116;2023-03-20T03:28:27;98922.22;;;5.91;99.09
18509;BME280;9383;50.928;12.116;2023-03-20T03:30:56;98935.50;;;5.83;99.48
18509;BME280;9383;50.928;12.116;2023-03-20T03:33:29;98929.53;;;5.73;98.80
18509;BME280;9383;50.928;12.116;2023-03-20T03:41:31;98928.94;;;5.53;99.45
18509;BME280;9383;50.928;12.116;2023-03-20T03:44:22;98926.50;;;5.42;99.53
18509;BME280;9383;50.928;12.116;2023-03-20T03:46:56;98925.72;;;5.35;100.00
18509;BME280;9383;50.928;12.116;2023-03-20T03:49:35;98926.66;;;5.31;100.00
18509;BME280;9383;50.928;12.116;2023-03-20T03:52:10;98935.44;;;5.27;100.00
18509;BME280;9383;50.928;12.116;2023-03-20T03:55:04;98932.88;;;5.22;100.00
18509;BME280;9383;50.928;12.116;2023-03-20T03:57:36;98935.56;;;5.17;100.00
18509;BME280;9383;50.928;12.116;2023-03-20T04:00:06;98939.13;;;5.13;100.00
18509;BME280;9383;50.928;12.116;2023-03-20T04:02:34;98933.03;;;5.11;100.00
18509;BME280;9383;50.928;12.116;2023-03-20T04:05:01;98936.50;;;5.12;100.00
18509;BME280;9383;50.928;12.116;2023-03-20T04:07:28;98935.66;;;5.10;100.00
18509;BME280;9383;50.928;12.116;2023-03-20T04:09:55;98930.44;;;5.06;100.00
18509;BME280;9383;50.928;12.116;2023-03-20T04:12:36;98934.81;;;5.09;100.00
18509;BME280;9383;50.928;12.116;2023-03-20T04:15:04;98940.06;;;5.09;100.00
18509;BME280;9383;50.928;12.116;2023-03-20T04:17:30;98941.81;;;5.10;100.00
18509;BME280;9383;50.928;12.116;2023-03-20T04:19:57;98940.03;;;5.12;100.00
18509;BME280;9383;50.928;12.116;2023-03-20T04:22:24;98938.28;;;5.11;100.00
18509;BME280;9383;50.928;12.116;2023-03-20T04:24:51;98953.16;;;5.14;100.00
18509;BME280;9383;50.928;12.116;2023-03-20T04:27:18;98953.94;;;5.17;100.00
18509;BME280;9383;50.928;12.116;2023-03-20T04:29:45;98956.56;;;5.20;100.00
18509;BME280;9383;50.928;12.116;2023-03-20T04:32:11;98959.16;;;5.24;100.00
18509;BME280;9383;50.928;12.116;2023-03-20T04:34:38;98960.84;;;5.28;100.00
18509;BME280;9383;50.928;12.116;2023-03-20T04:37:04;98959.94;;;5.29;100.00
18509;BME280;9383;50.928;12.116;2023-03-20T04:39:34;98961.66;;;5.33;100.00
18509;BME280;9383;50.928;12.116;2023-03-20T04:42:02;98959.84;;;5.37;100.00
18509;BME280;9383;50.928;12.116;2023-03-20T04:44:31;98962.47;;;5.38;100.00
18509;BME280;9383;50.928;12.116;2023-03-20T04:46:57;98961.50;;;5.42;100.00
18509;BME280;9383;50.928;12.116;2023-03-20T04:49:24;98967.59;;;5.47;100.00
18509;BME280;9383;50.928;12.116;2023-03-20T04:51:50;98974.53;;;5.52;100.00
18509;BME280;9383;50.928;12.116;2023-03-20T04:54:17;98970.09;;;5.57;100.00
18509;BME280;9383;50.928;12.116;2023-03-20T04:56:44;98977.06;;;5.59;100.00
18509;BME280;9383;50.928;12.116;2023-03-20T04:59:10;98979.63;;;5.64;100.00
18509;BME280;9383;50.928;12.116;2023-03-20T05:01:37;98979.56;;;5.69;100.00
18509;BME280;9383;50.928;12.116;2023-03-20T05:04:03;98987.41;;;5.73;100.00
18509;BME280;9383;50.928;12.116;2023-03-20T05:06:31;98989.06;;;5.79;100.00
18509;BME280;9383;50.928;12.116;2023-03-20T05:08:58;98986.31;;;5.87;100.00
18509;BME280;9383;50.928;12.116;2023-03-20T05:11:26;98994.16;;;5.91;100.00
18509;BME280;9383;50.928;12.116;2023-03-20T05:13:53;98989.72;;;5.95;100.00
18509;BME280;9383;50.928;12.116;2023-03-20T05:16:20;98989.66;;;5.98;100.00
18509;BME280;9383;50.928;12.116;2023-03-20T05:18:46;98993.16;;;6.02;100.00
18509;BME280;9383;50.928;12.116;2023-03-20T05:21:13;98993.06;;;6.07;100.00
18509;BME280;9383;50.928;12.116;2023-03-20T05:23:39;98993.03;;;6.10;100.00
18509;BME280;9383;50.928;12.116;2023-03-20T05:26:06;98994.72;;;6.14;100.00
18509;BME280;9383;50.928;12.116;2023-03-20T05:28:33;98991.13;;;6.18;100.00
18509;BME280;9383;50.928;12.116;2023-03-20T05:30:59;99001.63;;;6.19;100.00
18509;BME280;9383;50.928;12.116;2023-03-20T05:33:26;98999.84;;;6.23;100.00
18509;BME280;9383;50.928;12.116;2023-03-20T05:35:52;99005.03;;;6.26;100.00
18509;BME280;9383;50.928;12.116;2023-03-20T05:38:19;99002.34;;;6.29;100.00
18509;BME280;9383;50.928;12.116;2023-03-20T05:40:48;98996.16;;;6.33;100.00
18509;BME280;9383;50.928;12.116;2023-03-20T05:43:15;98992.59;;;6.36;100.00
18509;BME280;9383;50.928;12.116;2023-03-20T05:45:42;99005.72;;;6.39;100.00
18509;BME280;9383;50.928;12.116;2023-03-20T05:48:09;98996.88;;;6.43;100.00
18509;BME280;9383;50.928;12.116;2023-03-20T05:50:35;99007.31;;;6.48;100.00
18509;BME280;9383;50.928;12.116;2023-03-20T05:53:02;99002.88;;;6.52;100.00
18509;BME280;9383;50.928;12.116;2023-03-20T05:55:28;99003.66;;;6.55;100.00
18509;BME280;9383;50.928;12.116;2023-03-20T05:57:55;99002.75;;;6.58;100.00
18509;BME280;9383;50.928;12.116;2023-03-20T06:00:22;98997.41;;;6.61;100.00
18509;BME280;9383;50.928;12.116;2023-03-20T06:02:49;98990.34;;;6.65;100.00
18509;BME280;9383;50.928;12.116;2023-03-20T06:05:15;98999.06;;;6.67;100.00
18509;BME280;9383;50.928;12.116;2023-03-20T06:07:42;98995.53;;;6.69;100.00
18509;BME280;9383;50.928;12.116;2023-03-20T06:10:09;98989.28;;;6.75;100.00
18509;BME280;9383;50.928;12.116;2023-03-20T06:12:36;98993.59;;;6.79;100.00
18509;BME280;9383;50.928;12.116;2023-03-20T06:15:02;98994.41;;;6.83;100.00
18509;BME280;9383;50.928;12.116;2023-03-20T06:17:29;99007.50;;;6.87;100.00
18509;BME280;9383;50.928;12.116;2023-03-20T06:19:56;99005.63;;;6.93;100.00
18509;BME280;9383;50.928;12.116;2023-03-20T06:22:22;99000.25;;;6.99;100.00
18509;BME280;9383;50.928;12.116;2023-03-20T06:24:49;98995.75;;;7.04;100.00
18509;BME280;9383;50.928;12.116;2023-03-20T06:27:16;99000.91;;;7.10;100.00
18509;BME280;9383;50.928;12.116;2023-03-20T06:29:42;99001.59;;;7.18;100.00
18509;BME280;9383;50.928;12.116;2023-03-20T06:32:08;98998.88;;;7.25;100.00
18509;BME280;9383;50.928;12.116;2023-03-20T06:34:36;99011.91;;;7.31;100.00
18509;BME280;9383;50.928;12.116;2023-03-20T06:37:02;99007.34;;;7.39;100.00
18509;BME280;9383;50.928;12.116;2023-03-20T06:39:29;99009.00;;;7.45;100.00
18509;BME280;9383;50.928;12.116;2023-03-20T06:41:55;99008.81;;;7.53;100.00
18509;BME280;9383;50.928;12.116;2023-03-20T06:44:22;99011.28;;;7.60;100.00
18509;BME280;9383;50.928;12.116;2023-03-20T06:46:51;99003.25;;;7.67;100.00
18509;BME280;9383;50.928;12.116;2023-03-20T06:49:17;99004.84;;;7.74;100.00
18509;BME280;9383;50.928;12.116;2023-03-20T06:51:45;99017.84;;;7.83;100.00
18509;BME280;9383;50.928;12.116;2023-03-20T06:54:13;99015.03;;;7.91;100.00
18509;BME280;9383;50.928;12.116;2023-03-20T06:56:39;99021.84;;;8.00;100.00
18509;BME280;9383;50.928;12.116;2023-03-20T06:59:06;99020.81;;;8.07;100.00
18509;BME280;9383;50.928;12.116;2023-03-20T07:01:33;99018.91;;;8.14;100.00
18509;BME280;9383;50.928;12.116;2023-03-20T07:03:59;99016.06;;;8.22;100.00
18509;BME280;9383;50.928;12.116;2023-03-20T07:06:27;99016.78;;;8.28;100.00
18509;BME280;9383;50.928;12.116;2023-03-20T07:08:53;99023.69;;;8.36;100.00
18509;BME280;9383;50.928;12.116;2023-03-20T07:11:20;99019.09;;;8.42;100.00
18509;BME280;9383;50.928;12.116;2023-03-20T07:13:47;99018.03;;;8.51;100.00
18509;BME280;9383;50.928;12.116;2023-03-20T07:16:14;99021.38;;;8.60;100.00
18509;BME280;9383;50.928;12.116;2023-03-20T07:18:40;99021.19;;;8.66;100.00
18509;BME280;9383;50.928;12.116;2023-03-20T07:21:07;99012.22;;;8.73;100.00
18509;BME280;9383;50.928;12.116;2023-03-20T07:23:34;99019.97;;;8.79;100.00
18509;BME280;9383;50.928;12.116;2023-03-20T07:26:01;99022.38;;;8.89;100.00
18509;BME280;9383;50.928;12.116;2023-03-20T07:28:28;99027.53;;;8.93;100.00
18509;BME280;9383;50.928;12.116;2023-03-20T07:30:55;99029.91;;;9.03;100.00
18509;BME280;9383;50.928;12.116;2023-03-20T07:33:22;99024.34;;;9.13;100.00
18509;BME280;9383;50.928;12.116;2023-03-20T07:35:52;99031.13;;;9.24;100.00
18509;BME280;9383;50.928;12.116;2023-03-20T07:38:19;99035.31;;;9.31;100.00
18509;BME280;9383;50.928;12.116;2023-03-20T07:40:46;99031.59;;;9.38;100.00
18509;BME280;9383;50.928;12.116;2023-03-20T07:43:15;99024.38;;;9.43;100.00
18509;BME280;9383;50.928;12.116;2023-03-20T07:45:42;99029.41;;;9.53;100.00
18509;BME280;9383;50.928;12.116;2023-03-20T07:48:08;99029.13;;;9.62;100.00
18509;BME280;9383;50.928;12.116;2023-03-20T07:50:35;99035.06;;;9.70;100.00
18509;BME280;9383;50.928;12.116;2023-03-20T07:53:01;99034.13;;;9.71;100.00
18509;BME280;9383;50.928;12.116;2023-03-20T07:55:28;99027.75;;;9.79;100.00
18509;BME280;9383;50.928;12.116;2023-03-20T07:57:54;99030.06;;;9.90;100.00
18509;BME280;9383;50.928;12.116;2023-03-20T08:00:21;99035.13;;;9.97;100.00
18509;BME280;9383;50.928;12.116;2023-03-20T08:02:48;99022.53;;;10.04;100.00
18509;BME280;9383;50.928;12.116;2023-03-20T08:05:14;99024.00;;;10.14;100.00
18509;BME280;9383;50.928;12.116;2023-03-20T08:07:41;99028.91;;;10.27;100.00
18509;BME280;9383;50.928;12.116;2023-03-20T08:10:08;99025.06;;;10.36;100.00
18509;BME280;9383;50.928;12.116;2023-03-20T08:12:35;99022.34;;;10.39;100.00
18509;BME280;9383;50.928;12.116;2023-03-20T08:15:02;99025.84;;;10.39;99.25
18509;BME280;9383;50.928;12.116;2023-03-20T08:17:28;99017.69;;;10.47;99.52
18509;BME280;9383;50.928;12.116;2023-03-20T08:19:55;99024.63;;;10.51;98.58
18509;BME280;9383;50.928;12.116;2023-03-20T08:22:22;99022.69;;;10.57;98.40
18509;BME280;9383;50.928;12.116;2023-03-20T08:24:48;99032.16;;;10.64;98.79
18509;BME280;9383;50.928;12.116;2023-03-20T08:27:15;99033.69;;;10.71;98.23
18509;BME280;9383;50.928;12.116;2023-03-20T08:29:42;99031.69;;;10.78;98.13
18509;BME280;9383;50.928;12.116;2023-03-20T08:32:08;99037.88;;;10.78;97.52
18509;BME280;9383;50.928;12.116;2023-03-20T08:34:35;99037.75;;;10.81;97.32
18509;BME280;9383;50.928;12.116;2023-03-20T08:37:03;99032.44;;;10.81;96.95
18509;BME280;9383;50.928;12.116;2023-03-20T08:39:30;99028.72;;;10.87;97.14
18509;BME280;9383;50.928;12.116;2023-03-20T08:41:58;99036.47;;;10.93;96.75
18509;BME280;9383;50.928;12.116;2023-03-20T08:44:24;99030.06;;;10.99;96.70
18509;BME280;9383;50.928;12.116;2023-03-20T08:46:52;99028.06;;;11.06;96.33
18509;BME280;9383;50.928;12.116;2023-03-20T08:49:20;99038.50;;;11.10;96.43
18509;BME280;9383;50.928;12.116;2023-03-20T08:51:46;99036.47;;;11.19;96.31
18509;BME280;9383;50.928;12.116;2023-03-20T08:54:13;99037.09;;;11.25;96.52
18509;BME280;9383;50.928;12.116;2023-03-20T08:56:41;99036.66;;;11.38;96.52
18509;BME280;9383;50.928;12.116;2023-03-20T08:59:07;99034.47;;;11.49;96.20
18509;BME280;9383;50.928;12.116;2023-03-20T09:01:34;99038.69;;;11.55;95.40
18509;BME280;9383;50.928;12.116;2023-03-20T09:04:00;99041.81;;;11.66;95.52
18509;BME280;9383;50.928;12.116;2023-03-20T09:06:27;99043.25;;;11.75;95.54
18509;BME280;9383;50.928;12.116;2023-03-20T09:08:55;99036.66;;;11.86;95.26
18509;BME280;9383;50.928;12.116;2023-03-20T09:11:22;99046.03;;;11.94;94.65
18509;BME280;9383;50.928;12.116;2023-03-20T09:13:49;99044.84;;;12.03;94.54
18509;BME280;9383;50.928;12.116;2023-03-20T09:16:15;99044.63;;;12.09;93.54
18509;BME280;9383;50.928;12.116;2023-03-20T09:18:42;99047.91;;;12.16;93.08
18509;BME280;9383;50.928;12.116;2023-03-20T09:21:08;99051.22;;;12.21;92.33
18509;BME280;9383;50.928;12.116;2023-03-20T09:23:35;99050.16;;;12.26;91.44
18509;BME280;9383;50.928;12.116;2023-03-20T09:26:02;99036.69;;;12.30;91.39
18509;BME280;9383;50.928;12.116;2023-03-20T09:28:28;99039.13;;;12.36;91.09
18509;BME280;9383;50.928;12.116;2023-03-20T09:30:58;99046.13;;;12.39;90.22
18509;BME280;9383;50.928;12.116;2023-03-20T09:33:25;99035.41;;;12.41;89.63
18509;BME280;9383;50.928;12.116;2023-03-20T09:35:51;99050.97;;;12.50;89.91
18509;BME280;9383;50.928;12.116;2023-03-20T09:38:18;99048.13;;;12.55;89.84
18509;BME280;9383;50.928;12.116;2023-03-20T09:40:51;99043.41;;;12.61;89.68
18509;BME280;9383;50.928;12.116;2023-03-20T09:43:49;99050.38;;;12.64;88.76
18509;BME280;9383;50.928;12.116;2023-03-20T09:46:52;99050.00;;;12.73;88.86
18509;BME280;9383;50.928;12.116;2023-03-20T09:52:34;99052.94;;;12.88;88.34
18509;BME280;9383;50.928;12.116;2023-03-20T09:55:15;99057.22;;;12.92;88.06
18509;BME280;9383;50.928;12.116;2023-03-20T09:57:51;99052.56;;;12.97;88.02
18509;BME280;9383;50.928;12.116;2023-03-20T10:00:23;99056.81;;;13.01;87.78
18509;BME280;9383;50.928;12.116;2023-03-20T10:03:00;99059.56;;;13.00;87.54
18509;BME280;9383;50.928;12.116;2023-03-20T10:05:30;99067.59;;;12.98;87.28
18509;BME280;9383;50.928;12.116;2023-03-20T10:08:05;99057.94;;;12.95;87.37
18509;BME280;9383;50.928;12.116;2023-03-20T10:10:52;99057.94;;;12.95;87.42
18509;BME280;9383;50.928;12.116;2023-03-20T10:13:47;99062.41;;;12.95;87.08
18509;BME280;9383;50.928;12.116;2023-03-20T10:16:31;99057.88;;;12.97;87.64
18509;BME280;9383;50.928;12.116;2023-03-20T10:19:03;99062.13;;;13.01;87.74
18509;BME280;9383;50.928;12.116;2023-03-20T10:21:47;99060.16;;;13.06;87.93
18509;BME280;9383;50.928;12.116;2023-03-20T10:24:41;99062.63;;;13.11;87.82
18509;BME280;9383;50.928;12.116;2023-03-20T10:27:21;99056.28;;;13.14;87.30
18509;BME280;9383;50.928;12.116;2023-03-20T10:30:02;99051.22;;;13.07;86.98
18509;BME280;9383;50.928;12.116;2023-03-20T10:35:59;99050.25;;;13.10;85.59
18509;BME280;9383;50.928;12.116;2023-03-20T10:38:50;99052.97;;;13.08;85.58
18509;BME280;9383;50.928;12.116;2023-03-20T10:41:22;99047.50;;;13.12;85.81
18509;BME280;9383;50.928;12.116;2023-03-20T10:43:52;99044.63;;;13.16;85.98
18509;BME280;9383;50.928;12.116;2023-03-20T10:46:40;99042.50;;;13.25;86.55
18509;BME280;9383;50.928;12.116;2023-03-20T10:49:18;99035.03;;;13.33;86.55
18509;BME280;9383;50.928;12.116;2023-03-20T10:51:48;99044.47;;;13.40;86.28
18509;BME280;9383;50.928;12.116;2023-03-20T10:54:37;99037.09;;;13.47;85.77
18509;BME280;9383;50.928;12.116;2023-03-20T10:57:05;99025.31;;;13.53;85.56
18509;BME280;9383;50.928;12.116;2023-03-20T10:59:43;99037.69;;;13.54;85.20
18509;BME280;9383;50.928;12.116;2023-03-20T11:02:15;99030.84;;;13.48;85.29
18509;BME280;9383;50.928;12.116;2023-03-20T11:04:42;99032.50;;;13.50;85.49
18509;BME280;9383;50.928;12.116;2023-03-20T11:07:27;99028.63;;;13.58;85.28
18509;BME280;9383;50.928;12.116;2023-03-20T11:10:07;99017.38;;;13.70;85.34
18509;BME280;9383;50.928;12.116;2023-03-20T11:12:35;99032.00;;;13.81;84.83
18509;BME280;9383;50.928;12.116;2023-03-20T11:15:32;99029.06;;;13.87;84.02
18509;BME280;9383;50.928;12.116;2023-03-20T11:18:02;99025.47;;;13.88;83.32
18509;BME280;9383;50.928;12.116;2023-03-20T11:20:54;99020.34;;;13.83;83.03
18509;BME280;9383;50.928;12.116;2023-03-20T11:23:27;99023.97;;;13.82;83.15
18509;BME280;9383;50.928;12.116;2023-03-20T11:26:07;99034.63;;;13.82;83.20
18509;BME280;9383;50.928;12.116;2023-03-20T11:28:38;99028.50;;;13.80;83.58
18509;BME280;9383;50.928;12.116;2023-03-20T11:31:16;99025.97;;;13.77;83.62
18509;BME280;9383;50.928;12.116;2023-03-20T11:33:46;99024.94;;;13.60;83.23
18509;BME280;9383;50.928;12.116;2023-03-20T11:36:25;99018.63;;;13.42;83.95
18509;BME280;9383;50.928;12.116;2023-03-20T11:38:54;99013.41;;;13.41;84.59
18509;BME280;9383;50.928;12.116;2023-03-20T11:41:27;99016.84;;;13.43;84.83
18509;BME280;9383;50.928;12.116;2023-03-20T11:43:54;99021.66;;;13.34;84.60
18509;BME280;9383;50.928;12.116;2023-03-20T11:46:22;99013.47;;;13.18;84.97
18509;BME280;9383;50.928;12.116;2023-03-20T11:49:15;99022.09;;;13.04;85.63
18509;BME280;9383;50.928;12.116;2023-03-20T11:51:45;99018.91;;;12.96;86.22
18509;BME280;9383;50.928;12.116;2023-03-20T11:54:22;99015.16;;;13.00;86.80
18509;BME280;9383;50.928;12.116;2023-03-20T11:56:58;99013.03;;;13.08;86.61
18509;BME280;9383;50.928;12.116;2023-03-20T11:59:35;99005.59;;;13.17;86.54
18509;BME280;9383;50.928;12.116;2023-03-20T12:02:11;99004.56;;;13.19;85.77
18509;BME280;9383;50.928;12.116;2023-03-20T12:04:42;99006.44;;;13.17;85.19
18509;BME280;9383;50.928;12.116;2023-03-20T12:07:36;99018.84;;;12.98;84.76
18509;BME280;9383;50.928;12.116;2023-03-20T12:10:06;99012.38;;;12.83;85.37
18509;BME280;9383;50.928;12.116;2023-03-20T12:24:18;99004.06;;;12.49;87.34
18509;BME280;9383;50.928;12.116;2023-03-20T12:29:35;99000.78;;;12.42;89.03
18509;BME280;9383;50.928;12.116;2023-03-20T12:35:01;98998.13;;;12.42;91.54
18509;BME280;9383;50.928;12.116;2023-03-20T12:37:30;99004.38;;;12.41;92.55
18509;BME280;9383;50.928;12.116;2023-03-20T12:39:59;98999.06;;;12.41;93.54
18509;BME280;9383;50.928;12.116;2023-03-20T12:42:44;98993.75;;;12.41;94.05
18509;BME280;9383;50.928;12.116;2023-03-20T12:53:59;98984.31;;;12.55;93.62
18509;BME280;9383;50.928;12.116;2023-03-20T12:56:47;98983.97;;;12.62;93.20
18509;BME280;9383;50.928;12.116;2023-03-20T13:02:29;98981.78;;;12.72;93.53
18509;BME280;9383;50.928;12.116;2023-03-20T13:07:51;98980.84;;;12.73;94.34
18509;BME280;9383;50.928;12.116;2023-03-20T13:19:20;98969.28;;;12.74;94.33
18509;BME280;9383;50.928;12.116;2023-03-20T13:21:57;98959.38;;;12.78;95.45
18509;BME280;9383;50.928;12.116;2023-03-20T13:24:37;98958.28;;;12.82;94.68
18509;BME280;9383;50.928;12.116;2023-03-20T13:29:49;98903.00;;;12.49;93.27
18509;BME280;9383;50.928;12.116;2023-03-20T13:35:37;98960.91;;;12.84;93.09
18509;BME280;9383;50.928;12.116;2023-03-20T13:38:22;98958.88;;;12.89;93.18
18509;BME280;9383;50.928;12.116;2023-03-20T13:40:57;98965.81;;;12.93;92.76
18509;BME280;9383;50.928;12.116;2023-03-20T13:43:34;98963.41;;;12.87;92.19
18509;BME280;9383;50.928;12.116;2023-03-20T13:46:09;98958.59;;;12.76;92.39
18509;BME280;9383;50.928;12.116;2023-03-20T13:48:39;98964.28;;;12.66;92.75
18509;BME280;9383;50.928;12.116;2023-03-20T13:51:38;98963.63;;;12.61;93.32
18509;BME280;9383;50.928;12.116;2023-03-20T13:54:33;98961.81;;;12.62;93.40
18509;BME280;9383;50.928;12.116;2023-03-20T14:00:34;98950.25;;;12.63;93.09
18509;BME280;9383;50.928;12.116;2023-03-20T14:03:30;98948.53;;;12.62;92.56
18509;BME280;9383;50.928;12.116;2023-03-20T14:05:58;98948.66;;;12.59;92.67
18509;BME280;9383;50.928;12.116;2023-03-20T14:13:43;98940.63;;;12.40;90.70
18509;BME280;9383;50.928;12.116;2023-03-20T14:16:12;98940.75;;;12.36;90.48
18509;BME280;9383;50.928;12.116;2023-03-20T14:18:42;98933.81;;;12.32;90.76
18509;BME280;9383;50.928;12.116;2023-03-20T14:21:18;98941.09;;;12.29;90.46
18509;BME280;9383;50.928;12.116;2023-03-20T14:23:51;98936.81;;;12.24;90.09
18509;BME280;9383;50.928;12.116;2023-03-20T14:26:26;98933.44;;;12.21;89.94
18509;BME280;9383;50.928;12.116;2023-03-20T14:33:58;98928.03;;;12.02;89.78
18509;BME280;9383;50.928;12.116;2023-03-20T14:45:00;98920.25;;;11.95;89.51
18509;BME280;9383;50.928;12.116;2023-03-20T14:51:04;98941.50;;;11.95;89.87
18509;BME280;9383;50.928;12.116;2023-03-20T14:53:26;98917.75;;;11.92;89.98
18509;BME280;9383;50.928;12.116;2023-03-20T14:56:00;98915.13;;;11.91;90.00
18509;BME280;9383;50.928;12.116;2023-03-20T14:58:45;98920.56;;;11.88;89.91
18509;BME280;9383;50.928;12.116;2023-03-20T15:04:03;98914.69;;;11.79;90.42
18509;BME280;9383;50.928;12.116;2023-03-20T15:06:33;98908.69;;;11.76;90.24
18509;BME280;9383;50.928;12.116;2023-03-20T15:09:06;98913.59;;;11.63;89.30
18509;BME280;9383;50.928;12.116;2023-03-20T15:11:34;98909.34;;;11.59;90.63
18509;BME280;9383;50.928;12.116;2023-03-20T15:14:05;98900.63;;;11.55;90.03